sensor_id;sensor_type;location;lat;lon;timestamp;temperature;humidity
30069;DHT22;16894;49.456;10.644;2023-07-09T00:02:13;17.90;99.90
30069;DHT22;16894;49.456;10.644;2023-07-09T00:04:39;17.90;99.90
30069;DHT22;16894;49.456;10.644;2023-07-09T00:07:13;17.90;99.90
30069;DHT22;16894;49.456;10.644;2023-07-09T00:09:40;17.70;99.90
30069;DHT22;16894;49.456;10.644;2023-07-09T00:12:12;17.60;99.90
30069;DHT22;16894;49.456;10.644;2023-07-09T00:14:38;17.60;99.90
30069;DHT22;16894;49.456;10.644;2023-07-09T00:17:09;17.50;99.90
30069;DHT22;16894;49.456;10.644;2023-07-09T00:19:35;17.50;99.90
30069;DHT22;16894;49.456;10.644;2023-07-09T00:22:00;17.60;99.90
30069;DHT22;16894;49.456;10.644;2023-07-09T00:24:26;17.60;99.90
30069;DHT22;16894;49.456;10.644;2023-07-09T00:26:52;17.70;99.90
30069;DHT22;16894;49.456;10.644;2023-07-09T00:29:18;17.70;99.90
30069;DHT22;16894;49.456;10.644;2023-07-09T00:31:44;17.80;99.90
30069;DHT22;16894;49.456;10.644;2023-07-09T00:34:11;17.60;99.90
30069;DHT22;16894;49.456;10.644;2023-07-09T00:36:41;17.60;99.90
30069;DHT22;16894;49.456;10.644;2023-07-09T00:39:20;17.40;99.90
30069;DHT22;16894;49.456;10.644;2023-07-09T00:41:47;17.40;99.90
30069;DHT22;16894;49.456;10.644;2023-07-09T00:44:30;17.30;99.90
30069;DHT22;16894;49.456;10.644;2023-07-09T00:51:56;17.30;99.90
30069;DHT22;16894;49.456;10.644;2023-07-09T00:54:32;17.30;99.90
30069;DHT22;16894;49.456;10.644;2023-07-09T00:57:07;17.30;99.90
30069;DHT22;16894;49.456;10.644;2023-07-09T00:59:34;17.30;99.90
30069;DHT22;16894;49.456;10.644;2023-07-09T01:02:00;17.10;99.90
30069;DHT22;16894;49.456;10.644;2023-07-09T01:04:27;17.00;99.90
30069;DHT22;16894;49.456;10.644;2023-07-09T01:06:55;17.00;99.90
30069;DHT22;16894;49.456;10.644;2023-07-09T01:09:22;16.90;99.90
30069;DHT22;16894;49.456;10.644;2023-07-09T01:11:48;16.80;99.90
30069;DHT22;16894;49.456;10.644;2023-07-09T01:14:18;16.70;99.90
30069;DHT22;16894;49.456;10.644;2023-07-09T01:16:49;16.60;99.90
30069;DHT22;16894;49.456;10.644;2023-07-09T01:19:23;16.60;99.90
30069;DHT22;16894;49.456;10.644;2023-07-09T01:21:55;16.60;99.90
30069;DHT22;16894;49.456;10.644;2023-07-09T01:27:39;16.40;99.90
30069;DHT22;16894;49.456;10.644;2023-07-09T01:30:23;16.40;99.90
30069;DHT22;16894;49.456;10.644;2023-07-09T01:32:50;16.40;99.90
30069;DHT22;16894;49.456;10.644;2023-07-09T01:35:18;16.50;99.90
30069;DHT22;16894;49.456;10.644;2023-07-09T01:37:45;16.50;99.90
30069;DHT22;16894;49.456;10.644;2023-07-09T01:40:14;16.50;99.90
30069;DHT22;16894;49.456;10.644;2023-07-09T01:42:40;16.40;99.90
30069;DHT22;16894;49.456;10.644;2023-07-09T01:45:07;16.50;99.90
30069;DHT22;16894;49.456;10.644;2023-07-09T01:47:37;16.40;99.90
30069;DHT22;16894;49.456;10.644;2023-07-09T01:50:04;16.40;99.90
30069;DHT22;16894;49.456;10.644;2023-07-09T01:52:31;16.40;99.90
30069;DHT22;16894;49.456;10.644;2023-07-09T01:54:58;16.30;99.90
30069;DHT22;16894;49.456;10.644;2023-07-09T01:57:25;16.30;99.90
30069;DHT22;16894;49.456;10.644;2023-07-09T01:59:59;16.20;99.90
30069;DHT22;16894;49.456;10.644;2023-07-09T02:02:26;16.30;99.90
30069;DHT22;16894;49.456;10.644;2023-07-09T02:04:53;16.10;99.90
30069;DHT22;16894;49.456;10.644;2023-07-09T02:07:21;16.20;99.90
30069;DHT22;16894;49.456;10.644;2023-07-09T02:09:47;16.10;99.90
30069;DHT22;16894;49.456;10.644;2023-07-09T02:12:14;16.10;99.90
30069;DHT22;16894;49.456;10.644;2023-07-09T02:14:42;16.10;99.90
30069;DHT22;16894;49.456;10.644;2023-07-09T02:17:08;16.10;99.90
30069;DHT22;16894;49.456;10.644;2023-07-09T02:19:34;16.00;99.90
30069;DHT22;16894;49.456;10.644;2023-07-09T02:22:00;16.20;99.90
30069;DHT22;16894;49.456;10.644;2023-07-09T02:24:26;16.20;99.90
30069;DHT22;16894;49.456;10.644;2023-07-09T02:26:57;16.40;99.90
30069;DHT22;16894;49.456;10.644;2023-07-09T02:29:24;16.30;99.90
30069;DHT22;16894;49.456;10.644;2023-07-09T02:31:51;16.30;99.90
30069;DHT22;16894;49.456;10.644;2023-07-09T02:34:18;16.00;99.90
30069;DHT22;16894;49.456;10.644;2023-07-09T02:36:44;15.80;99.90
30069;DHT22;16894;49.456;10.644;2023-07-09T02:39:12;15.60;99.90
30069;DHT22;16894;49.456;10.644;2023-07-09T02:41:42;15.60;99.90
30069;DHT22;16894;49.456;10.644;2023-07-09T02:44:08;15.70;99.90
30069;DHT22;16894;49.456;10.644;2023-07-09T02:46:34;15.70;99.90
30069;DHT22;16894;49.456;10.644;2023-07-09T02:49:02;15.70;99.90
30069;DHT22;16894;49.456;10.644;2023-07-09T02:51:28;15.60;99.90
30069;DHT22;16894;49.456;10.644;2023-07-09T02:53:59;15.60;99.90
30069;DHT22;16894;49.456;10.644;2023-07-09T02:56:25;15.60;99.90
30069;DHT22;16894;49.456;10.644;2023-07-09T02:58:51;15.60;99.90
30069;DHT22;16894;49.456;10.644;2023-07-09T03:01:17;15.50;99.90
30069;DHT22;16894;49.456;10.644;2023-07-09T03:03:43;15.40;99.90
30069;DHT22;16894;49.456;10.644;2023-07-09T03:06:09;15.40;99.90
30069;DHT22;16894;49.456;10.644;2023-07-09T03:08:35;15.30;99.90
30069;DHT22;16894;49.456;10.644;2023-07-09T03:11:09;15.30;99.90
30069;DHT22;16894;49.456;10.644;2023-07-09T03:13:35;15.20;99.90
30069;DHT22;16894;49.456;10.644;2023-07-09T03:16:01;15.20;99.90
30069;DHT22;16894;49.456;10.644;2023-07-09T03:18:26;15.20;99.90
30069;DHT22;16894;49.456;10.644;2023-07-09T03:20:52;15.30;99.90
30069;DHT22;16894;49.456;10.644;2023-07-09T03:23:18;15.40;99.90
30069;DHT22;16894;49.456;10.644;2023-07-09T03:25:44;15.30;99.90
30069;DHT22;16894;49.456;10.644;2023-07-09T03:28:13;15.30;99.90
30069;DHT22;16894;49.456;10.644;2023-07-09T03:30:43;15.20;99.90
30069;DHT22;16894;49.456;10.644;2023-07-09T03:33:14;15.10;99.90
30069;DHT22;16894;49.456;10.644;2023-07-09T03:35:40;15.20;99.90
30069;DHT22;16894;49.456;10.644;2023-07-09T03:38:07;15.20;99.90
30069;DHT22;16894;49.456;10.644;2023-07-09T03:40:33;15.30;99.90
30069;DHT22;16894;49.456;10.644;2023-07-09T03:42:59;15.30;99.90
30069;DHT22;16894;49.456;10.644;2023-07-09T03:45:24;15.40;99.90
30069;DHT22;16894;49.456;10.644;2023-07-09T03:47:50;15.50;99.90
30069;DHT22;16894;49.456;10.644;2023-07-09T03:50:16;15.60;99.90
30069;DHT22;16894;49.456;10.644;2023-07-09T03:52:42;15.70;99.90
30069;DHT22;16894;49.456;10.644;2023-07-09T03:55:08;15.70;99.90
30069;DHT22;16894;49.456;10.644;2023-07-09T03:57:35;15.70;99.90
30069;DHT22;16894;49.456;10.644;2023-07-09T04:00:02;15.70;99.90
30069;DHT22;16894;49.456;10.644;2023-07-09T04:02:29;15.60;99.90
30069;DHT22;16894;49.456;10.644;2023-07-09T04:04:55;15.60;99.90
30069;DHT22;16894;49.456;10.644;2023-07-09T04:07:20;15.50;99.90
30069;DHT22;16894;49.456;10.644;2023-07-09T04:09:46;15.50;99.90
30069;DHT22;16894;49.456;10.644;2023-07-09T04:12:12;15.50;99.90
30069;DHT22;16894;49.456;10.644;2023-07-09T04:14:39;15.40;99.90
30069;DHT22;16894;49.456;10.644;2023-07-09T04:17:06;15.40;99.90
30069;DHT22;16894;49.456;10.644;2023-07-09T04:19:32;15.50;99.90
30069;DHT22;16894;49.456;10.644;2023-07-09T04:21:57;15.40;99.90
30069;DHT22;16894;49.456;10.644;2023-07-09T04:24:23;15.30;99.90
30069;DHT22;16894;49.456;10.644;2023-07-09T04:26:49;15.20;99.90
30069;DHT22;16894;49.456;10.644;2023-07-09T04:29:15;15.30;99.90
30069;DHT22;16894;49.456;10.644;2023-07-09T04:31:41;15.30;99.90
30069;DHT22;16894;49.456;10.644;2023-07-09T04:34:07;15.40;99.90
30069;DHT22;16894;49.456;10.644;2023-07-09T04:36:33;15.30;99.90
30069;DHT22;16894;49.456;10.644;2023-07-09T04:38:59;15.40;99.90
30069;DHT22;16894;49.456;10.644;2023-07-09T04:41:25;15.60;99.90
30069;DHT22;16894;49.456;10.644;2023-07-09T04:43:51;15.60;99.90
30069;DHT22;16894;49.456;10.644;2023-07-09T04:46:16;15.70;99.90
30069;DHT22;16894;49.456;10.644;2023-07-09T04:48:42;15.80;99.90
30069;DHT22;16894;49.456;10.644;2023-07-09T04:51:08;15.90;99.90
30069;DHT22;16894;49.456;10.644;2023-07-09T04:53:34;15.90;99.90
30069;DHT22;16894;49.456;10.644;2023-07-09T04:56:00;15.70;99.90
30069;DHT22;16894;49.456;10.644;2023-07-09T04:58:28;15.60;99.90
30069;DHT22;16894;49.456;10.644;2023-07-09T05:00:57;15.60;99.90
30069;DHT22;16894;49.456;10.644;2023-07-09T05:03:22;15.70;99.90
30069;DHT22;16894;49.456;10.644;2023-07-09T05:05:48;15.80;99.90
30069;DHT22;16894;49.456;10.644;2023-07-09T05:08:14;15.80;99.90
30069;DHT22;16894;49.456;10.644;2023-07-09T05:10:44;15.80;99.90
30069;DHT22;16894;49.456;10.644;2023-07-09T05:13:10;15.90;99.90
30069;DHT22;16894;49.456;10.644;2023-07-09T05:15:40;16.00;99.90
30069;DHT22;16894;49.456;10.644;2023-07-09T05:18:06;16.00;99.90
30069;DHT22;16894;49.456;10.644;2023-07-09T05:20:33;16.10;99.90
30069;DHT22;16894;49.456;10.644;2023-07-09T05:23:00;16.20;99.90
30069;DHT22;16894;49.456;10.644;2023-07-09T05:25:26;16.30;99.90
30069;DHT22;16894;49.456;10.644;2023-07-09T05:27:52;16.40;99.90
30069;DHT22;16894;49.456;10.644;2023-07-09T05:30:18;16.40;99.90
30069;DHT22;16894;49.456;10.644;2023-07-09T05:32:44;16.50;99.90
30069;DHT22;16894;49.456;10.644;2023-07-09T05:35:10;16.60;99.90
30069;DHT22;16894;49.456;10.644;2023-07-09T05:37:37;16.80;99.90
30069;DHT22;16894;49.456;10.644;2023-07-09T05:40:04;16.90;99.90
30069;DHT22;16894;49.456;10.644;2023-07-09T05:42:31;16.90;99.90
30069;DHT22;16894;49.456;10.644;2023-07-09T05:44:57;17.00;99.90
30069;DHT22;16894;49.456;10.644;2023-07-09T05:47:23;17.10;99.90
30069;DHT22;16894;49.456;10.644;2023-07-09T05:49:49;17.20;99.90
30069;DHT22;16894;49.456;10.644;2023-07-09T05:52:21;17.30;99.90
30069;DHT22;16894;49.456;10.644;2023-07-09T05:54:49;17.40;99.90
30069;DHT22;16894;49.456;10.644;2023-07-09T05:57:15;17.50;99.90
30069;DHT22;16894;49.456;10.644;2023-07-09T05:59:41;17.60;99.90
30069;DHT22;16894;49.456;10.644;2023-07-09T06:02:14;17.70;99.90
30069;DHT22;16894;49.456;10.644;2023-07-09T06:04:40;17.80;99.90
30069;DHT22;16894;49.456;10.644;2023-07-09T06:07:06;18.00;99.90
30069;DHT22;16894;49.456;10.644;2023-07-09T06:09:32;18.10;99.90
30069;DHT22;16894;49.456;10.644;2023-07-09T06:11:58;18.20;99.90
30069;DHT22;16894;49.456;10.644;2023-07-09T06:14:25;18.30;99.90
30069;DHT22;16894;49.456;10.644;2023-07-09T06:16:50;18.50;99.90
30069;DHT22;16894;49.456;10.644;2023-07-09T06:19:16;18.60;99.90
30069;DHT22;16894;49.456;10.644;2023-07-09T06:21:41;18.70;99.90
30069;DHT22;16894;49.456;10.644;2023-07-09T06:24:08;18.90;99.90
30069;DHT22;16894;49.456;10.644;2023-07-09T06:26:33;19.10;99.90
30069;DHT22;16894;49.456;10.644;2023-07-09T06:28:59;19.30;99.90
30069;DHT22;16894;49.456;10.644;2023-07-09T06:31:25;19.50;99.90
30069;DHT22;16894;49.456;10.644;2023-07-09T06:33:51;19.70;99.90
30069;DHT22;16894;49.456;10.644;2023-07-09T06:36:17;19.90;99.90
30069;DHT22;16894;49.456;10.644;2023-07-09T06:38:44;20.00;99.90
30069;DHT22;16894;49.456;10.644;2023-07-09T06:41:10;20.30;99.90
30069;DHT22;16894;49.456;10.644;2023-07-09T06:43:36;20.40;99.90
30069;DHT22;16894;49.456;10.644;2023-07-09T06:46:05;20.60;99.90
30069;DHT22;16894;49.456;10.644;2023-07-09T06:48:31;20.70;99.90
30069;DHT22;16894;49.456;10.644;2023-07-09T06:50:58;20.90;99.90
30069;DHT22;16894;49.456;10.644;2023-07-09T06:53:24;21.10;99.90
30069;DHT22;16894;49.456;10.644;2023-07-09T06:55:51;21.20;99.90
30069;DHT22;16894;49.456;10.644;2023-07-09T06:58:18;21.50;99.90
30069;DHT22;16894;49.456;10.644;2023-07-09T07:00:44;21.70;99.90
30069;DHT22;16894;49.456;10.644;2023-07-09T07:03:11;21.80;99.90
30069;DHT22;16894;49.456;10.644;2023-07-09T07:05:36;22.10;99.90
30069;DHT22;16894;49.456;10.644;2023-07-09T07:08:03;22.30;99.90
30069;DHT22;16894;49.456;10.644;2023-07-09T07:10:29;22.60;99.90
30069;DHT22;16894;49.456;10.644;2023-07-09T07:12:56;22.70;99.90
30069;DHT22;16894;49.456;10.644;2023-07-09T07:15:22;23.00;99.90
30069;DHT22;16894;49.456;10.644;2023-07-09T07:17:47;23.10;99.90
30069;DHT22;16894;49.456;10.644;2023-07-09T07:20:14;23.30;99.90
30069;DHT22;16894;49.456;10.644;2023-07-09T07:22:41;23.60;99.90
30069;DHT22;16894;49.456;10.644;2023-07-09T07:25:07;23.80;99.90
30069;DHT22;16894;49.456;10.644;2023-07-09T07:27:33;24.10;99.70
30069;DHT22;16894;49.456;10.644;2023-07-09T07:30:00;24.30;99.40
30069;DHT22;16894;49.456;10.644;2023-07-09T07:32:26;24.60;98.60
30069;DHT22;16894;49.456;10.644;2023-07-09T07:34:51;24.80;98.50
30069;DHT22;16894;49.456;10.644;2023-07-09T07:37:19;25.00;97.80
30069;DHT22;16894;49.456;10.644;2023-07-09T07:39:48;25.20;97.40
30069;DHT22;16894;49.456;10.644;2023-07-09T07:42:14;25.40;97.20
30069;DHT22;16894;49.456;10.644;2023-07-09T07:44:40;25.70;96.60
30069;DHT22;16894;49.456;10.644;2023-07-09T07:47:06;25.90;96.30
30069;DHT22;16894;49.456;10.644;2023-07-09T07:49:32;26.30;96.10
30069;DHT22;16894;49.456;10.644;2023-07-09T07:51:57;26.40;95.20
30069;DHT22;16894;49.456;10.644;2023-07-09T07:54:23;26.70;94.60
30069;DHT22;16894;49.456;10.644;2023-07-09T07:56:48;26.80;94.00
30069;DHT22;16894;49.456;10.644;2023-07-09T07:59:14;27.00;93.60
30069;DHT22;16894;49.456;10.644;2023-07-09T08:01:40;27.30;92.80
30069;DHT22;16894;49.456;10.644;2023-07-09T08:04:06;27.40;92.80
30069;DHT22;16894;49.456;10.644;2023-07-09T08:06:32;27.50;92.20
30069;DHT22;16894;49.456;10.644;2023-07-09T08:08:57;27.70;91.50
30069;DHT22;16894;49.456;10.644;2023-07-09T08:11:24;27.90;90.90
30069;DHT22;16894;49.456;10.644;2023-07-09T08:13:50;28.00;90.40
30069;DHT22;16894;49.456;10.644;2023-07-09T08:16:16;28.10;89.90
30069;DHT22;16894;49.456;10.644;2023-07-09T08:18:42;28.30;88.30
30069;DHT22;16894;49.456;10.644;2023-07-09T08:21:07;28.60;87.60
30069;DHT22;16894;49.456;10.644;2023-07-09T08:23:34;28.70;87.50
30069;DHT22;16894;49.456;10.644;2023-07-09T08:26:01;29.10;86.20
30069;DHT22;16894;49.456;10.644;2023-07-09T08:28:31;29.50;84.40
30069;DHT22;16894;49.456;10.644;2023-07-09T08:30:57;30.00;84.30
30069;DHT22;16894;49.456;10.644;2023-07-09T08:33:24;30.60;83.40
30069;DHT22;16894;49.456;10.644;2023-07-09T08:35:51;30.70;79.70
30069;DHT22;16894;49.456;10.644;2023-07-09T08:38:17;30.70;78.20
30069;DHT22;16894;49.456;10.644;2023-07-09T08:41:02;31.10;75.50
30069;DHT22;16894;49.456;10.644;2023-07-09T08:46:48;31.20;73.10
30069;DHT22;16894;49.456;10.644;2023-07-09T08:49:26;31.30;70.40
30069;DHT22;16894;49.456;10.644;2023-07-09T08:51:56;32.10;67.70
30069;DHT22;16894;49.456;10.644;2023-07-09T08:54:28;32.80;65.00
30069;DHT22;16894;49.456;10.644;2023-07-09T08:57:02;32.50;64.20
30069;DHT22;16894;49.456;10.644;2023-07-09T08:59:35;32.70;63.50
30069;DHT22;16894;49.456;10.644;2023-07-09T09:02:03;32.80;62.40
30069;DHT22;16894;49.456;10.644;2023-07-09T09:04:36;33.10;62.40
30069;DHT22;16894;49.456;10.644;2023-07-09T09:07:20;33.70;60.80
30069;DHT22;16894;49.456;10.644;2023-07-09T09:09:58;33.80;59.20
30069;DHT22;16894;49.456;10.644;2023-07-09T09:12:37;32.90;60.10
30069;DHT22;16894;49.456;10.644;2023-07-09T09:15:13;32.30;60.70
30069;DHT22;16894;49.456;10.644;2023-07-09T09:17:41;32.50;60.00
30069;DHT22;16894;49.456;10.644;2023-07-09T09:20:08;32.90;60.00
30069;DHT22;16894;49.456;10.644;2023-07-09T09:22:44;33.20;60.50
30069;DHT22;16894;49.456;10.644;2023-07-09T09:25:23;33.20;58.00
30069;DHT22;16894;49.456;10.644;2023-07-09T09:27:50;33.00;59.10
30069;DHT22;16894;49.456;10.644;2023-07-09T09:30:21;34.20;56.70
30069;DHT22;16894;49.456;10.644;2023-07-09T09:33:00;34.70;56.30
30069;DHT22;16894;49.456;10.644;2023-07-09T09:35:33;34.30;56.10
30069;DHT22;16894;49.456;10.644;2023-07-09T09:38:00;34.50;55.70
30069;DHT22;16894;49.456;10.644;2023-07-09T09:40:28;35.00;55.20
30069;DHT22;16894;49.456;10.644;2023-07-09T09:42:57;34.80;55.50
30069;DHT22;16894;49.456;10.644;2023-07-09T09:45:31;35.50;55.00
30069;DHT22;16894;49.456;10.644;2023-07-09T09:48:00;35.70;53.20
30069;DHT22;16894;49.456;10.644;2023-07-09T09:50:30;35.40;53.70
30069;DHT22;16894;49.456;10.644;2023-07-09T09:52:57;35.00;54.00
30069;DHT22;16894;49.456;10.644;2023-07-09T09:55:27;35.40;54.20
30069;DHT22;16894;49.456;10.644;2023-07-09T09:57:54;36.10;53.90
30069;DHT22;16894;49.456;10.644;2023-07-09T10:00:26;36.00;52.60
30069;DHT22;16894;49.456;10.644;2023-07-09T10:02:59;35.90;52.60
30069;DHT22;16894;49.456;10.644;2023-07-09T10:05:34;36.50;52.30
30069;DHT22;16894;49.456;10.644;2023-07-09T10:08:38;36.50;52.70
30069;DHT22;16894;49.456;10.644;2023-07-09T10:11:08;36.90;52.80
30069;DHT22;16894;49.456;10.644;2023-07-09T10:13:40;37.40;51.00
30069;DHT22;16894;49.456;10.644;2023-07-09T10:16:27;36.90;51.70
30069;DHT22;16894;49.456;10.644;2023-07-09T10:22:06;37.80;49.40
30069;DHT22;16894;49.456;10.644;2023-07-09T10:30:17;38.30;48.70
30069;DHT22;16894;49.456;10.644;2023-07-09T10:35:40;37.60;48.70
30069;DHT22;16894;49.456;10.644;2023-07-09T10:40:41;38.30;47.70
30069;DHT22;16894;49.456;10.644;2023-07-09T10:43:15;39.30;48.50
30069;DHT22;16894;49.456;10.644;2023-07-09T10:45:54;39.00;47.50
30069;DHT22;16894;49.456;10.644;2023-07-09T10:48:34;38.50;46.80
30069;DHT22;16894;49.456;10.644;2023-07-09T10:51:01;38.90;48.00
30069;DHT22;16894;49.456;10.644;2023-07-09T10:53:44;39.10;45.90
30069;DHT22;16894;49.456;10.644;2023-07-09T10:56:14;39.10;46.20
30069;DHT22;16894;49.456;10.644;2023-07-09T10:59:20;39.30;45.40
30069;DHT22;16894;49.456;10.644;2023-07-09T11:01:50;39.40;44.10
30069;DHT22;16894;49.456;10.644;2023-07-09T11:06:48;39.50;43.90
30069;DHT22;16894;49.456;10.644;2023-07-09T11:11:59;38.60;44.90
30069;DHT22;16894;49.456;10.644;2023-07-09T11:14:35;38.40;44.70
30069;DHT22;16894;49.456;10.644;2023-07-09T11:17:07;38.80;43.90
30069;DHT22;16894;49.456;10.644;2023-07-09T11:19:42;38.80;45.00
30069;DHT22;16894;49.456;10.644;2023-07-09T11:22:24;39.60;44.70
30069;DHT22;16894;49.456;10.644;2023-07-09T11:24:51;39.90;43.50
30069;DHT22;16894;49.456;10.644;2023-07-09T11:27:20;40.70;43.90
30069;DHT22;16894;49.456;10.644;2023-07-09T11:29:55;40.90;42.70
30069;DHT22;16894;49.456;10.644;2023-07-09T11:32:24;40.30;42.90
30069;DHT22;16894;49.456;10.644;2023-07-09T11:34:49;40.20;42.30
30069;DHT22;16894;49.456;10.644;2023-07-09T11:37:16;38.50;43.10
30069;DHT22;16894;49.456;10.644;2023-07-09T11:39:47;38.20;44.90
30069;DHT22;16894;49.456;10.644;2023-07-09T11:44:50;40.20;43.10
30069;DHT22;16894;49.456;10.644;2023-07-09T11:47:30;40.50;41.70
30069;DHT22;16894;49.456;10.644;2023-07-09T11:52:56;42.10;40.40
30069;DHT22;16894;49.456;10.644;2023-07-09T11:55:36;42.70;39.50
30069;DHT22;16894;49.456;10.644;2023-07-09T11:58:04;42.00;39.10
30069;DHT22;16894;49.456;10.644;2023-07-09T12:00:38;40.10;40.00
30069;DHT22;16894;49.456;10.644;2023-07-09T12:03:06;39.10;41.10
30069;DHT22;16894;49.456;10.644;2023-07-09T12:05:32;38.80;42.10
30069;DHT22;16894;49.456;10.644;2023-07-09T12:07:59;38.20;41.80
30069;DHT22;16894;49.456;10.644;2023-07-09T12:10:28;37.60;42.60
30069;DHT22;16894;49.456;10.644;2023-07-09T12:12:58;37.70;43.30
30069;DHT22;16894;49.456;10.644;2023-07-09T12:15:26;37.40;43.00
30069;DHT22;16894;49.456;10.644;2023-07-09T12:17:54;36.50;43.40
30069;DHT22;16894;49.456;10.644;2023-07-09T12:20:20;36.10;44.10
30069;DHT22;16894;49.456;10.644;2023-07-09T12:22:46;35.70;45.00
30069;DHT22;16894;49.456;10.644;2023-07-09T12:25:28;35.80;45.10
30069;DHT22;16894;49.456;10.644;2023-07-09T12:27:54;36.80;43.80
30069;DHT22;16894;49.456;10.644;2023-07-09T12:30:20;38.00;43.80
30069;DHT22;16894;49.456;10.644;2023-07-09T12:32:50;38.80;42.90
30069;DHT22;16894;49.456;10.644;2023-07-09T12:35:18;39.70;41.10
30069;DHT22;16894;49.456;10.644;2023-07-09T12:37:46;40.20;41.80
30069;DHT22;16894;49.456;10.644;2023-07-09T12:40:15;41.50;40.70
30069;DHT22;16894;49.456;10.644;2023-07-09T12:42:42;42.40;41.60
30069;DHT22;16894;49.456;10.644;2023-07-09T12:45:19;42.00;39.80
30069;DHT22;16894;49.456;10.644;2023-07-09T12:47:46;41.30;40.00
30069;DHT22;16894;49.456;10.644;2023-07-09T12:50:29;41.80;39.40
30069;DHT22;16894;49.456;10.644;2023-07-09T12:52:59;42.50;40.60
30069;DHT22;16894;49.456;10.644;2023-07-09T12:55:27;43.20;39.40
30069;DHT22;16894;49.456;10.644;2023-07-09T12:57:59;43.40;39.70
30069;DHT22;16894;49.456;10.644;2023-07-09T13:00:30;42.70;39.30
30069;DHT22;16894;49.456;10.644;2023-07-09T13:02:58;42.40;39.70
30069;DHT22;16894;49.456;10.644;2023-07-09T13:05:25;43.10;39.40
30069;DHT22;16894;49.456;10.644;2023-07-09T13:07:53;42.60;39.20
30069;DHT22;16894;49.456;10.644;2023-07-09T13:10:23;42.90;39.30
30069;DHT22;16894;49.456;10.644;2023-07-09T13:12:53;42.40;39.20
30069;DHT22;16894;49.456;10.644;2023-07-09T13:15:42;42.20;39.50
30069;DHT22;16894;49.456;10.644;2023-07-09T13:18:11;42.10;38.90
30069;DHT22;16894;49.456;10.644;2023-07-09T13:20:41;42.60;38.60
30069;DHT22;16894;49.456;10.644;2023-07-09T13:23:13;42.50;38.60
30069;DHT22;16894;49.456;10.644;2023-07-09T13:25:40;42.80;39.40
30069;DHT22;16894;49.456;10.644;2023-07-09T13:28:18;42.70;38.70
30069;DHT22;16894;49.456;10.644;2023-07-09T13:30:45;43.00;38.80
30069;DHT22;16894;49.456;10.644;2023-07-09T13:33:11;43.10;38.30
30069;DHT22;16894;49.456;10.644;2023-07-09T13:35:37;43.70;39.10
30069;DHT22;16894;49.456;10.644;2023-07-09T13:38:12;44.40;37.60
30069;DHT22;16894;49.456;10.644;2023-07-09T13:40:38;44.60;38.20
30069;DHT22;16894;49.456;10.644;2023-07-09T13:43:11;44.30;37.10
30069;DHT22;16894;49.456;10.644;2023-07-09T13:45:39;44.50;38.10
30069;DHT22;16894;49.456;10.644;2023-07-09T13:48:12;45.50;38.20
30069;DHT22;16894;49.456;10.644;2023-07-09T13:50:38;45.30;37.30
30069;DHT22;16894;49.456;10.644;2023-07-09T13:53:12;45.50;36.60
30069;DHT22;16894;49.456;10.644;2023-07-09T13:55:38;43.90;36.70
30069;DHT22;16894;49.456;10.644;2023-07-09T13:58:03;43.30;37.80
30069;DHT22;16894;49.456;10.644;2023-07-09T14:00:29;43.20;37.50
30069;DHT22;16894;49.456;10.644;2023-07-09T14:02:55;41.90;37.90
30069;DHT22;16894;49.456;10.644;2023-07-09T14:05:21;41.30;38.90
30069;DHT22;16894;49.456;10.644;2023-07-09T14:07:46;42.50;39.40
30069;DHT22;16894;49.456;10.644;2023-07-09T14:10:14;43.40;38.90
30069;DHT22;16894;49.456;10.644;2023-07-09T14:12:45;43.60;37.10
30069;DHT22;16894;49.456;10.644;2023-07-09T14:15:21;45.50;36.10
30069;DHT22;16894;49.456;10.644;2023-07-09T14:17:46;43.40;36.90
30069;DHT22;16894;49.456;10.644;2023-07-09T14:20:14;43.70;37.50
30069;DHT22;16894;49.456;10.644;2023-07-09T14:22:42;45.40;36.40
30069;DHT22;16894;49.456;10.644;2023-07-09T14:25:28;45.00;36.70
30069;DHT22;16894;49.456;10.644;2023-07-09T14:27:54;44.30;36.70
30069;DHT22;16894;49.456;10.644;2023-07-09T14:30:23;44.80;36.50
30069;DHT22;16894;49.456;10.644;2023-07-09T14:32:49;45.40;36.10
30069;DHT22;16894;49.456;10.644;2023-07-09T14:35:21;44.40;36.00
30069;DHT22;16894;49.456;10.644;2023-07-09T14:37:50;45.00;36.50
30069;DHT22;16894;49.456;10.644;2023-07-09T14:40:17;45.20;35.90
30069;DHT22;16894;49.456;10.644;2023-07-09T14:42:45;44.00;36.10
30069;DHT22;16894;49.456;10.644;2023-07-09T14:45:18;43.20;37.00
30069;DHT22;16894;49.456;10.644;2023-07-09T14:47:44;43.20;36.70
30069;DHT22;16894;49.456;10.644;2023-07-09T14:50:10;43.50;37.20
30069;DHT22;16894;49.456;10.644;2023-07-09T14:52:35;42.90;37.60
30069;DHT22;16894;49.456;10.644;2023-07-09T14:55:02;42.80;37.80
30069;DHT22;16894;49.456;10.644;2023-07-09T14:57:28;43.80;37.20
30069;DHT22;16894;49.456;10.644;2023-07-09T14:59:56;42.20;37.30
30069;DHT22;16894;49.456;10.644;2023-07-09T15:04:54;41.20;38.10
30069;DHT22;16894;49.456;10.644;2023-07-09T15:07:20;41.10;38.10
30069;DHT22;16894;49.456;10.644;2023-07-09T15:09:46;41.10;38.10
30069;DHT22;16894;49.456;10.644;2023-07-09T15:12:19;39.90;38.30
30069;DHT22;16894;49.456;10.644;2023-07-09T15:14:49;39.70;39.00
30069;DHT22;16894;49.456;10.644;2023-07-09T15:17:14;38.50;39.60
30069;DHT22;16894;49.456;10.644;2023-07-09T15:19:40;38.20;40.00
30069;DHT22;16894;49.456;10.644;2023-07-09T15:22:17;38.10;39.60
30069;DHT22;16894;49.456;10.644;2023-07-09T15:24:44;37.90;40.50
30069;DHT22;16894;49.456;10.644;2023-07-09T15:27:11;37.50;40.60
30069;DHT22;16894;49.456;10.644;2023-07-09T15:29:36;36.80;40.60
30069;DHT22;16894;49.456;10.644;2023-07-09T15:32:02;36.20;41.10
30069;DHT22;16894;49.456;10.644;2023-07-09T15:34:28;35.80;42.20
30069;DHT22;16894;49.456;10.644;2023-07-09T15:36:53;35.60;42.60
30069;DHT22;16894;49.456;10.644;2023-07-09T15:39:20;35.60;42.80
30069;DHT22;16894;49.456;10.644;2023-07-09T15:41:46;35.50;42.60
30069;DHT22;16894;49.456;10.644;2023-07-09T15:44:14;35.40;42.70
30069;DHT22;16894;49.456;10.644;2023-07-09T15:46:41;35.40;43.20
30069;DHT22;16894;49.456;10.644;2023-07-09T15:49:11;35.60;43.20
30069;DHT22;16894;49.456;10.644;2023-07-09T15:51:38;35.50;42.40
30069;DHT22;16894;49.456;10.644;2023-07-09T15:54:15;35.40;42.30
30069;DHT22;16894;49.456;10.644;2023-07-09T15:56:42;35.10;42.10
30069;DHT22;16894;49.456;10.644;2023-07-09T16:01:49;34.90;42.60
30069;DHT22;16894;49.456;10.644;2023-07-09T16:04:15;35.00;42.90
30069;DHT22;16894;49.456;10.644;2023-07-09T16:06:42;35.20;43.20